地図

経路データ

SID SEASON NUMBER BASIN SUBBASIN NAME ISO_TIME NATURE LAT LON WMO_WIND WMO_PRES WMO_AGENCY TRACK_TYPE DIST2LAND LANDFALL IFLAG USA_AGENCY USA_ATCF_ID USA_LAT USA_LON USA_RECORD USA_STATUS USA_WIND USA_PRES USA_SSHS USA_R34_NE USA_R34_SE USA_R34_SW USA_R34_NW USA_R50_NE USA_R50_SE USA_R50_SW USA_R50_NW USA_R64_NE USA_R64_SE USA_R64_SW USA_R64_NW USA_POCI USA_ROCI USA_RMW USA_EYE TOKYO_LAT TOKYO_LON TOKYO_GRADE TOKYO_WIND TOKYO_PRES TOKYO_R50_DIR TOKYO_R50_LONG TOKYO_R50_SHORT TOKYO_R30_DIR TOKYO_R30_LONG TOKYO_R30_SHORT TOKYO_LAND CMA_LAT CMA_LON CMA_CAT CMA_WIND CMA_PRES HKO_LAT HKO_LON HKO_CAT HKO_WIND HKO_PRES NEWDELHI_LAT NEWDELHI_LON NEWDELHI_GRADE NEWDELHI_WIND NEWDELHI_PRES NEWDELHI_CI NEWDELHI_DP NEWDELHI_POCI REUNION_LAT REUNION_LON REUNION_TYPE REUNION_WIND REUNION_PRES REUNION_TNUM REUNION_CI REUNION_RMW REUNION_R34_NE REUNION_R34_SE REUNION_R34_SW REUNION_R34_NW REUNION_R50_NE REUNION_R50_SE REUNION_R50_SW REUNION_R50_NW REUNION_R64_NE REUNION_R64_SE REUNION_R64_SW REUNION_R64_NW BOM_LAT BOM_LON BOM_TYPE BOM_WIND BOM_PRES BOM_TNUM BOM_CI BOM_RMW BOM_R34_NE BOM_R34_SE BOM_R34_SW BOM_R34_NW BOM_R50_NE BOM_R50_SE BOM_R50_SW BOM_R50_NW BOM_R64_NE BOM_R64_SE BOM_R64_SW BOM_R64_NW BOM_ROCI BOM_POCI BOM_EYE BOM_POS_METHOD BOM_PRES_METHOD NADI_LAT NADI_LON NADI_CAT NADI_WIND NADI_PRES WELLINGTON_LAT WELLINGTON_LON WELLINGTON_WIND WELLINGTON_PRES DS824_LAT DS824_LON DS824_STAGE DS824_WIND DS824_PRES TD9636_LAT TD9636_LON TD9636_STAGE TD9636_WIND TD9636_PRES TD9635_LAT TD9635_LON TD9635_WIND TD9635_PRES TD9635_ROCI NEUMANN_LAT NEUMANN_LON NEUMANN_CLASS NEUMANN_WIND NEUMANN_PRES MLC_LAT MLC_LON MLC_CLASS MLC_WIND MLC_PRES USA_GUST BOM_GUST BOM_GUST_PER REUNION_GUST REUNION_GUST_PER USA_SEAHGT USA_SEARAD_NE USA_SEARAD_SE USA_SEARAD_SW USA_SEARAD_NW STORM_SPEED STORM_DIR
1881236N15323 1881 34 NA NA NOT_NAMED 1881-08-23 12:00:00 TS 14.5000 -37.5000 main 1895 1850 _____________O -1 14.5000 -37.5000 TD 25 13 279
1881236N15323 1881 34 NA NA NOT_NAMED 1881-08-23 15:00:00 TS 14.6004 -38.1624 main 1841 1798 _____________P -1 14.6004 -38.1624 TD 27 13 279
1881236N15323 1881 34 NA NA NOT_NAMED 1881-08-23 18:00:00 TS 14.7000 -38.8000 main 1798 1755 _____________O -1 14.7000 -38.8000 TD 30 12 279
1881236N15323 1881 34 NA NA NOT_NAMED 1881-08-23 21:00:00 TS 14.7997 -39.4001 main 1755 1715 _____________P -1 14.7997 -39.4001 TD 32 12 280
1881236N15323 1881 34 NA NA NOT_NAMED 1881-08-24 00:00:00 TS 14.9000 -40.0000 main 1715 1676 _____________O -1 14.9000 -40.0000 TS 35 12 280
1881236N15323 1881 34 NA NA NOT_NAMED 1881-08-24 03:00:00 TS 15.0074 -40.6500 main 1676 1631 _____________P -1 15.0074 -40.6500 TS 37 13 279
1881236N15323 1881 34 NA NA NOT_NAMED 1881-08-24 06:00:00 TS 15.1000 -41.3000 main 1631 1588 _____________O -1 15.1000 -41.3000 TS 40 12 276
1881236N15323 1881 34 NA NA NOT_NAMED 1881-08-24 09:00:00 TS 15.1422 -41.9002 main 1588 1555 _____________P -1 15.1422 -41.9002 TS 42 12 275
1881236N15323 1881 34 NA NA NOT_NAMED 1881-08-24 12:00:00 TS 15.2000 -42.5000 main 1555 1524 _____________O -1 15.2000 -42.5000 TS 45 12 279
1881236N15323 1881 34 NA NA NOT_NAMED 1881-08-24 15:00:00 TS 15.3424 -43.1499 main 1524 1499 _____________P -1 15.3424 -43.1499 TS 45 13 283
1881236N15323 1881 34 NA NA NOT_NAMED 1881-08-24 18:00:00 TS 15.5000 -43.8000 main 1499 1469 _____________O -1 15.5000 -43.8000 TS 45 12 282
1881236N15323 1881 34 NA NA NOT_NAMED 1881-08-24 21:00:00 TS 15.6072 -44.4001 main 1469 1439 _____________P -1 15.6072 -44.4001 TS 45 12 280
1881236N15323 1881 34 NA NA NOT_NAMED 1881-08-25 00:00:00 TS 15.7000 -45.0000 main 1439 1412 _____________O -1 15.7000 -45.0000 TS 45 12 279
1881236N15323 1881 34 NA NA NOT_NAMED 1881-08-25 03:00:00 TS 15.7999 -45.6500 main 1406 1381 _____________P -1 15.7999 -45.6500 TS 45 13 279
1881236N15323 1881 34 NA NA NOT_NAMED 1881-08-25 06:00:00 TS 15.9000 -46.3000 main 1381 1360 _____________O -1 15.9000 -46.3000 TS 45 12 279
1881236N15323 1881 34 NA NA NOT_NAMED 1881-08-25 09:00:00 TS 15.9922 -46.9002 main 1360 1340 _____________P -1 15.9922 -46.9002 TS 45 12 280
1881236N15323 1881 34 NA NA NOT_NAMED 1881-08-25 12:00:00 TS 16.1000 -47.5000 main 1340 1324 _____________O -1 16.1000 -47.5000 TS 45 12 282
1881236N15323 1881 34 NA NA NOT_NAMED 1881-08-25 15:00:00 TS 16.2424 -48.1500 main 1324 1314 _____________P -1 16.2424 -48.1500 TS 45 13 284
1881236N15323 1881 34 NA NA NOT_NAMED 1881-08-25 18:00:00 TS 16.4000 -48.8000 main 1315 1297 _____________O -1 16.4000 -48.8000 TS 45 12 284
1881236N15323 1881 34 NA NA NOT_NAMED 1881-08-25 21:00:00 TS 16.5497 -49.4001 main 1297 1290 _____________P -1 16.5497 -49.4001 TS 42 12 285
1881236N15323 1881 34 NA NA NOT_NAMED 1881-08-26 00:00:00 TS 16.7000 -50.0000 main 1293 1282 _____________O -1 16.7000 -50.0000 TS 40 12 284
1881236N15323 1881 34 NA NA NOT_NAMED 1881-08-26 03:00:00 TS 16.8499 -50.6501 main 1278 1262 _____________P -1 16.8499 -50.6501 TS 37 13 284
1881236N15323 1881 34 NA NA NOT_NAMED 1881-08-26 06:00:00 TS 17.0000 -51.3000 main 1262 1215 _____________O -1 17.0000 -51.3000 TS 35 12 284
1881236N15323 1881 34 NA NA NOT_NAMED 1881-08-26 09:00:00 TS 17.1497 -51.9001 main 1215 1177 _____________P -1 17.1497 -51.9001 TS 35 12 285
1881236N15323 1881 34 NA NA NOT_NAMED 1881-08-26 12:00:00 TS 17.3000 -52.5000 main 1177 1135 _____________O -1 17.3000 -52.5000 TS 35 12 284
1881236N15323 1881 34 NA NA NOT_NAMED 1881-08-26 15:00:00 TS 17.4499 -53.1501 main 1127 1095 _____________P -1 17.4499 -53.1501 TS 35 13 284
1881236N15323 1881 34 NA NA NOT_NAMED 1881-08-26 18:00:00 TS 17.6000 -53.8000 main 1095 1058 _____________O -1 17.6000 -53.8000 TS 35 12 284
1881236N15323 1881 34 NA NA NOT_NAMED 1881-08-26 21:00:00 TS 17.7497 -54.4001 main 1058 1033 _____________P -1 17.7497 -54.4001 TS 35 12 285
1881236N15323 1881 34 NA NA NOT_NAMED 1881-08-27 00:00:00 TS 17.9000 -55.0000 main 1033 1003 _____________O -1 17.9000 -55.0000 TS 35 12 284
1881236N15323 1881 34 NA NA NOT_NAMED 1881-08-27 03:00:00 TS 18.0499 -55.6501 main 996 980 _____________P -1 18.0499 -55.6501 TS 35 13 284
1881236N15323 1881 34 NA NA NOT_NAMED 1881-08-27 06:00:00 TS 18.2000 -56.3000 main 980 918 _____________O -1 18.2000 -56.3000 TS 35 13 283
1881236N15323 1881 34 NA NA NOT_NAMED 1881-08-27 09:00:00 TS 18.3349 -56.9302 main 918 854 _____________P -1 18.3349 -56.9302 TS 35 12 285
1881236N15323 1881 34 NA NA NOT_NAMED 1881-08-27 12:00:00 TS 18.5000 -57.5000 main 854 812 _____________O -1 18.5000 -57.5000 TS 35 11 292
1881236N15323 1881 34 NA NA NOT_NAMED 1881-08-27 15:00:00 TS 18.7347 -57.9726 main 801 761 _____________P -1 18.7347 -57.9726 TS 35 10 300
1881236N15323 1881 34 NA NA NOT_NAMED 1881-08-27 18:00:00 TS 19.0000 -58.4000 main 761 721 _____________O -1 19.0000 -58.4000 TS 35 10 302
1881236N15323 1881 34 NA NA NOT_NAMED 1881-08-27 21:00:00 TS 19.2499 -58.8501 main 710 673 _____________P -1 19.2499 -58.8501 TS 35 10 300
1881236N15323 1881 34 NA NA NOT_NAMED 1881-08-28 00:00:00 TS 19.5000 -59.3000 main 673 636 _____________O -1 19.5000 -59.3000 TS 35 10 300
1881236N15323 1881 34 NA NA NOT_NAMED 1881-08-28 03:00:00 TS 19.7499 -59.7576 main 626 594 _____________P -1 19.7499 -59.7576 TS 35 10 301
1881236N15323 1881 34 NA NA NOT_NAMED 1881-08-28 06:00:00 TS 20.0000 -60.2000 main 594 561 _____________O -1 20.0000 -60.2000 TS 35 9 300
1881236N15323 1881 34 NA NA NOT_NAMED 1881-08-28 09:00:00 TS 20.2122 -60.5931 main 561 536 _____________P -1 20.2122 -60.5931 TS 35 9 304
1881236N15323 1881 34 NA NA NOT_NAMED 1881-08-28 12:00:00 TS 20.5000 -61.0000 main 536 512 _____________O -1 20.5000 -61.0000 TS 35 11 312
1881236N15323 1881 34 NA NA NOT_NAMED 1881-08-28 15:00:00 TS 20.9625 -61.4849 main 518 507 _____________P -1 20.9625 -61.4849 TS 35 14 317
1881236N15323 1881 34 NA NA NOT_NAMED 1881-08-28 18:00:00 TS 21.5000 -62.0000 main 511 511 _____________O -1 21.5000 -62.0000 TS 35 14 318
1881236N15323 1881 34 NA NA NOT_NAMED 1881-08-28 21:00:00 TS 21.9998 -62.5003 main 516 515 _____________P -1 21.9998 -62.5003 TS 35 14 317
1881236N15323 1881 34 NA NA NOT_NAMED 1881-08-29 00:00:00 TS 22.5000 -63.0000 main 532 532 _____________O -1 22.5000 -63.0000 TS 35 14 317
1881236N15323 1881 34 NA NA NOT_NAMED 1881-08-29 03:00:00 TS 22.9998 -63.5004 main 558 558 _____________P -1 22.9998 -63.5004 TS 35 14 317
1881236N15323 1881 34 NA NA NOT_NAMED 1881-08-29 06:00:00 TS 23.5000 -64.0000 main 593 593 _____________O -1 23.5000 -64.0000 TS 35 14 316
1881236N15323 1881 34 NA NA NOT_NAMED 1881-08-29 09:00:00 TS 24.0228 -64.5818 main 634 634 _____________P -1 24.0228 -64.5818 TS 35 14 318
1881236N15323 1881 34 NA NA NOT_NAMED 1881-08-29 12:00:00 TS 24.5000 -65.0000 main 684 684 _____________O -1 24.5000 -65.0000 TS 35 10 333
1881236N15323 1881 34 NA NA NOT_NAMED 1881-08-29 15:00:00 TS 24.8797 -65.0557 main 728 728 _____________P -1 24.8797 -65.0557 TS 35 7 7
1881236N15323 1881 34 NA NA NOT_NAMED 1881-08-29 18:00:00 TS 25.2000 -64.9000 main 763 763 _____________O -1 25.2000 -64.9000 TS 35 7 25
1881236N15323 1881 34 NA NA NOT_NAMED 1881-08-29 21:00:00 TS 25.5075 -64.7300 main 799 799 _____________P -1 25.5075 -64.7300 TS 37 7 31
1881236N15323 1881 34 NA NA NOT_NAMED 1881-08-30 00:00:00 TS 25.8000 -64.5000 main 835 835 _____________O -1 25.8000 -64.5000 TS 40 7 36
1881236N15323 1881 34 NA NA NOT_NAMED 1881-08-30 03:00:00 TS 26.1000 -64.2574 main 871 871 _____________P -1 26.1000 -64.2574 TS 40 8 37
1881236N15323 1881 34 NA NA NOT_NAMED 1881-08-30 06:00:00 TS 26.4000 -64.0000 main 909 909 _____________O -1 26.4000 -64.0000 TS 40 7 34
1881236N15323 1881 34 NA NA NOT_NAMED 1881-08-30 09:00:00 TS 26.6845 -63.8092 main 946 946 _____________P -1 26.6845 -63.8092 TS 40 8 37
1881236N15323 1881 34 NA NA NOT_NAMED 1881-08-30 12:00:00 TS 27.0000 -63.5000 main 985 985 _____________O -1 27.0000 -63.5000 TS 40 11 49
1881236N15323 1881 34 NA NA NOT_NAMED 1881-08-30 15:00:00 TS 27.3930 -62.9030 main 1043 1043 _____________P -1 27.3930 -62.9030 TS 40 14 55
1881236N15323 1881 34 NA NA NOT_NAMED 1881-08-30 18:00:00 TS 27.8000 -62.2000 main 1106 1106 _____________O -1 27.8000 -62.2000 TS 40 14 57
1881236N15323 1881 34 NA NA NOT_NAMED 1881-08-30 21:00:00 TS 28.1496 -61.5918 main 1158 1158 _____________P -1 28.1496 -61.5918 TS 42 13 57
1881236N15323 1881 34 NA NA NOT_NAMED 1881-08-31 00:00:00 TS 28.5000 -61.0000 main 1222 1222 _____________O -1 28.5000 -61.0000 TS 45 13 54
1881236N15323 1881 34 NA NA NOT_NAMED 1881-08-31 03:00:00 TS 28.8996 -60.4072 main 1286 1286 _____________P -1 28.8996 -60.4072 TS 45 13 53
1881236N15323 1881 34 NA NA NOT_NAMED 1881-08-31 06:00:00 TS 29.3000 -59.8000 main 1352 1352 _____________O -1 29.3000 -59.8000 TS 45 13 55
1881236N15323 1881 34 NA NA NOT_NAMED 1881-08-31 09:00:00 TS 29.6646 -59.1720 main 1419 1419 _____________P -1 29.6646 -59.1720 TS 45 13 58
1881236N15323 1881 34 NA NA NOT_NAMED 1881-08-31 12:00:00 TS 30.0000 -58.5000 main 1481 1481 _____________O -1 30.0000 -58.5000 TS 45 14 62
1881236N15323 1881 34 NA NA NOT_NAMED 1881-08-31 15:00:00 TS 30.3074 -57.7571 main 1545 1545 _____________P -1 30.3074 -57.7571 TS 45 14 65
1881236N15323 1881 34 NA NA NOT_NAMED 1881-08-31 18:00:00 TS 30.6000 -57.0000 main 1611 1605 _____________O -1 30.6000 -57.0000 TS 45 14 64
1881236N15323 1881 34 NA NA NOT_NAMED 1881-08-31 21:00:00 TS 30.8985 -56.3440 main 1610 1603 _____________P -1 30.8985 -56.3440 TS 47 13 63
1881236N15323 1881 34 NA NA NOT_NAMED 1881-09-01 00:00:00 TS 31.2000 -55.6000 main 1612 1611 _____________O -1 31.2000 -55.6000 TS 50 17 69
1881236N15323 1881 34 NA NA NOT_NAMED 1881-09-01 03:00:00 TS 31.5097 -54.5059 main 1628 1622 _____________P -1 31.5097 -54.5059 TS 50 19 71
1881236N15323 1881 34 NA NA NOT_NAMED 1881-09-01 06:00:00 TS 31.8000 -53.5000 main 1629 1622 _____________O -1 31.8000 -53.5000 TS 50 14 68
1881236N15323 1881 34 NA NA NOT_NAMED 1881-09-01 09:00:00 TS 32.0412 -52.9344 main 1625 1592 _____________P -1 32.0412 -52.9344 TS 50 8 54
1881236N15323 1881 34 NA NA NOT_NAMED 1881-09-01 12:00:00 TS 32.3000 -52.7000 main 1592 1558 _____________O -1 32.3000 -52.7000 TS 50 6 20
1881236N15323 1881 34 NA NA NOT_NAMED 1881-09-01 15:00:00 TS 32.6348 -52.6819 main 1558 1514 _____________P -1 32.6348 -52.6819 TS 50 7 353
1881236N15323 1881 34 NA NA NOT_NAMED 1881-09-01 18:00:00 TS 33.0000 -52.8000 main 1514 1480 _____________O -1 33.0000 -52.8000 TS 50 7 349
1881236N15323 1881 34 NA NA NOT_NAMED 1881-09-01 21:00:00 TS 33.3500 -52.8500 main 1480 1435 _____________P -1 33.3500 -52.8500 TS 50 7 354
1881236N15323 1881 34 NA NA NOT_NAMED 1881-09-02 00:00:00 TS 33.7000 -52.9000 main 1435 1402 _____________O -1 33.7000 -52.9000 TS 50 7 353
1881236N15323 1881 34 NA NA NOT_NAMED 1881-09-02 03:00:00 TS 34.0575 -52.9574 main 1391 1357 _____________P -1 34.0575 -52.9574 TS 50 7 354
1881236N15323 1881 34 NA NA NOT_NAMED 1881-09-02 06:00:00 TS 34.4000 -53.0000 main 1357 1324 _____________O -1 34.4000 -53.0000 TS 50 7 356
1881236N15323 1881 34 NA NA NOT_NAMED 1881-09-02 09:00:00 TS 34.7300 -53.0150 main 1324 1290 _____________P -1 34.7300 -53.0150 TS 50 6 360
1881236N15323 1881 34 NA NA NOT_NAMED 1881-09-02 12:00:00 TS 35.0000 -53.0000 main 1290 1268 _____________O -1 35.0000 -53.0000 TS 50 5 4
1881236N15323 1881 34 NA NA NOT_NAMED 1881-09-02 15:00:00 TS 35.1800 -52.9575 main 1268 1257 _____________P -1 35.1800 -52.9575 TS 50 3 14
1881236N15323 1881 34 NA NA NOT_NAMED 1881-09-02 18:00:00 TS 35.3000 -52.9000 main 1257 1246 _____________O -1 35.3000 -52.9000 TS 50 2 22
1881236N15323 1881 34 NA NA NOT_NAMED 1881-09-02 21:00:00 TS 35.4000 -52.8500 main 1246 1235 _____________P -1 35.4000 -52.8500 TS 50 2 23
1881236N15323 1881 34 NA NA NOT_NAMED 1881-09-03 00:00:00 TS 35.5000 -52.8000 main 1235 1224 _____________O -1 35.5000 -52.8000 TS 50 3 18
1881236N15323 1881 34 NA NA NOT_NAMED 1881-09-03 03:00:00 TS 35.6500 -52.7575 main 1224 1202 _____________P -1 35.6500 -52.7575 TS 50 3 14
1881236N15323 1881 34 NA NA NOT_NAMED 1881-09-03 06:00:00 TS 35.8000 -52.7000 main 1202 1191 _____________O -1 35.8000 -52.7000 TS 50 3 22
1881236N15323 1881 34 NA NA NOT_NAMED 1881-09-03 09:00:00 TS 35.9074 -52.6299 main 1191 1180 _____________P -1 35.9074 -52.6299 TS 50 3 40
1881236N15323 1881 34 NA NA NOT_NAMED 1881-09-03 12:00:00 TS 36.0000 -52.5000 main 1180 1169 _____________O -1 36.0000 -52.5000 TS 50 4 55
1881236N15323 1881 34 NA NA NOT_NAMED 1881-09-03 15:00:00 TS 36.1076 -52.2726 main 1170 1159 _____________P -1 36.1076 -52.2726 TS 50 5 64
1881236N15323 1881 34 NA NA NOT_NAMED 1881-09-03 18:00:00 TS 36.2000 -52.0000 main 1161 1151 _____________O -1 36.2000 -52.0000 TS 50 4 70
1881236N15323 1881 34 NA NA NOT_NAMED 1881-09-03 21:00:00 TS 36.2574 -51.7499 main 1152 1152 _____________P -1 36.2574 -51.7499 TS 50 4 76
1881236N15323 1881 34 NA NA NOT_NAMED 1881-09-04 00:00:00 TS 36.3000 -51.5000 main 1154 1154 _____________O -1 36.3000 -51.5000 TS 50 4 77
1881236N15323 1881 34 NA NA NOT_NAMED 1881-09-04 03:00:00 TS 36.3499 -51.2500 main 1157 1146 _____________P -1 36.3499 -51.2500 TS 50 4 76
1881236N15323 1881 34 NA NA NOT_NAMED 1881-09-04 06:00:00 TS 36.4000 -51.0000 main 1149 1149 _____________O -1 36.4000 -51.0000 TS 50 4 78
1881236N15323 1881 34 NA NA NOT_NAMED 1881-09-04 09:00:00 TS 36.4348 -50.7647 main 1151 1142 _____________P -1 36.4348 -50.7647 TS 50 4 76
1881236N15323 1881 34 NA NA NOT_NAMED 1881-09-04 12:00:00 TS 36.5000 -50.5000 main 1145 1136 _____________O -1 36.5000 -50.5000 TS 50 5 66
1881236N15323 1881 34 NA NA NOT_NAMED 1881-09-04 15:00:00 TS 36.6424 -50.1727 main 1139 1123 _____________P -1 36.6424 -50.1727 TS 50 6 62
1881236N15323 1881 34 NA NA NOT_NAMED 1881-09-04 18:00:00 TS 36.8000 -49.8000 main 1125 1118 _____________O -1 36.8000 -49.8000 TS 50 7 67
1881236N15323 1881 34 NA NA NOT_NAMED 1881-09-04 21:00:00 TS 36.9000 -49.3997 main 1123 1117 _____________P -1 36.9000 -49.3997 TS 47 7 73
1881236N15323 1881 34 NA NA NOT_NAMED 1881-09-05 00:00:00 TS 37.0000 -49.0000 main 1122 1114 _____________O -1 37.0000 -49.0000 TS 45 6 67
1881236N15323 1881 34 NA NA NOT_NAMED 1881-09-05 03:00:00 TS 37.1498 -48.6500 main 1122 1106 _____________P -1 37.1498 -48.6500 TS 42 6 62
1881236N15323 1881 34 NA NA NOT_NAMED 1881-09-05 06:00:00 TS 37.3000 -48.3000 main 1109 1105 _____________O -1 37.3000 -48.3000 TS 40 6 67
1881236N15323 1881 34 NA NA NOT_NAMED 1881-09-05 09:00:00 TS 37.3999 -47.9072 main 1111 1108 _____________P -1 37.3999 -47.9072 TS 37 7 73
1881236N15323 1881 34 NA NA NOT_NAMED 1881-09-05 12:00:00 TS 37.5000 -47.5000 main 1114 1111 _____________O -1 37.5000 -47.5000 TS 35 7 69
1881236N15323 1881 34 NA NA NOT_NAMED 1881-09-05 15:00:00 TS 37.6499 -47.0926 main 1118 1108 _____________P -1 37.6499 -47.0926 TS 32 7 65
1881236N15323 1881 34 NA NA NOT_NAMED 1881-09-05 18:00:00 TS 37.8000 -46.7000 main 1113 1111 _____________O -1 37.8000 -46.7000 TD 30 6 67
1881236N15323 1881 34 NA NA NOT_NAMED 1881-09-05 21:00:00 TS 37.8998 -46.3422 main 1119 1114 _____________P -1 37.8998 -46.3422 TD 30 6 70
1881236N15323 1881 34 NA NA NOT_NAMED 1881-09-06 00:00:00 TS 38.0000 -46.0000 main 1122 1117 _____________O -1 38.0000 -46.0000 TD 30 6 65
1881236N15323 1881 34 NA NA NOT_NAMED 1881-09-06 03:00:00 TS 38.1498 -45.6575 main 1126 1120 _____________P -1 38.1498 -45.6575 TD 30 6 61
1881236N15323 1881 34 NA NA NOT_NAMED 1881-09-06 06:00:00 TS 38.3000 -45.3000 main 1125 1125 _____________O -1 38.3000 -45.3000 TD 30 6 66
1881236N15323 1881 34 NA NA NOT_NAMED 1881-09-06 09:00:00 TS 38.4128 -44.9101 main 1135 1135 _____________P -1 38.4128 -44.9101 TD 27 7 72
1881236N15323 1881 34 NA NA NOT_NAMED 1881-09-06 12:00:00 TS 38.5000 -44.5000 main 1145 _____________O -1 38.5000 -44.5000 TD 25 7 75

IBTrACS Databaseについて

本データベースは、米国NOAAが公開する1842年以降の世界の熱帯低気圧のベストトラックデータアーカイブInternational Best Track Archive for Climate Stewardship (IBTrACS)を、ウェブで閲覧しやすい形式に変換したものです。

最終更新日:2021-12-03